Time;durP1;ratioP1;P1;durP2;ratioP2;P2;SDS_P1;SDS_P2;PMS_P1;PMS_P2;Temp;Humidity;BMP_temperature;BMP_pressure;BME280_temperature;BME280_humidity;BME280_pressure;Samples;Min_cycle;Max_cycle;Signal;HPM_P1;HPM_P2
2021/12/03 00:01:11;;;;;;;1.73;1.60;;;19.80;54.70;;;;;;4942290;29;20043;-43
2021/12/03 00:03:38;;;;;;;1.60;1.30;;;19.70;54.70;;;;;;4927747;29;20059;-45
2021/12/03 00:06:04;;;;;;;3.40;1.48;;;19.70;54.60;;;;;;4928130;29;20040;-42
2021/12/03 00:08:31;;;;;;;1.40;1.17;;;19.70;54.60;;;;;;4945970;29;20092;-41
2021/12/03 00:10:59;;;;;;;2.85;1.45;;;19.70;54.50;;;;;;4946756;29;20038;-42
2021/12/03 00:13:26;;;;;;;1.70;1.60;;;19.70;54.50;;;;;;4947028;29;20103;-43
2021/12/03 00:15:53;;;;;;;1.92;1.55;;;19.70;54.50;;;;;;4946825;29;20848;-42
2021/12/03 00:18:20;;;;;;;2.55;1.30;;;19.70;54.50;;;;;;4946491;29;20046;-43
2021/12/03 00:20:46;;;;;;;1.60;1.50;;;19.70;54.50;;;;;;4946535;29;20038;-42
2021/12/03 00:23:12;;;;;;;2.28;1.60;;;19.70;54.50;;;;;;4946388;29;20101;-42
2021/12/03 00:25:38;;;;;;;3.35;1.50;;;19.70;54.50;;;;;;4946722;29;20679;-41
2021/12/03 00:28:04;;;;;;;1.70;1.40;;;19.70;54.50;;;;;;4946089;29;20059;-42
2021/12/03 00:30:31;;;;;;;2.10;1.67;;;19.70;54.40;;;;;;4946515;29;20095;-41
2021/12/03 00:32:57;;;;;;;1.70;1.60;;;19.60;54.40;;;;;;4945976;29;20031;-41
2021/12/03 00:35:23;;;;;;;2.00;1.77;;;19.60;54.40;;;;;;4945514;29;20167;-42
2021/12/03 00:37:49;;;;;;;2.10;1.90;;;19.60;54.30;;;;;;4946410;29;20028;-41
2021/12/03 00:40:19;;;;;;;1.63;1.52;;;19.60;54.30;;;;;;4946434;29;20039;-41
2021/12/03 00:42:45;;;;;;;2.60;2.08;;;19.60;54.40;;;;;;4945840;29;20031;-42
2021/12/03 00:45:11;;;;;;;2.22;2.00;;;19.60;54.30;;;;;;4946045;29;20086;-41
2021/12/03 00:47:38;;;;;;;2.88;2.20;;;19.60;54.30;;;;;;4945949;29;20477;-41
2021/12/03 00:50:05;;;;;;;1.92;1.73;;;19.50;54.30;;;;;;4946209;29;20051;-42
2021/12/03 00:52:31;;;;;;;2.70;2.00;;;19.50;54.30;;;;;;4945774;29;20028;-42
2021/12/03 00:54:57;;;;;;;1.88;1.75;;;19.50;54.30;;;;;;4945659;29;20099;-41
2021/12/03 00:57:23;;;;;;;2.00;1.70;;;19.50;54.20;;;;;;4933794;29;20038;-42
2021/12/03 00:59:49;;;;;;;2.15;1.92;;;19.50;54.20;;;;;;4927019;29;20408;-41
2021/12/03 01:02:17;;;;;;;2.13;1.92;;;19.50;54.30;;;;;;4939814;29;20058;-41
2021/12/03 01:04:46;;;;;;;2.33;1.92;;;19.50;54.20;;;;;;4945826;29;20059;-41
2021/12/03 01:07:13;;;;;;;2.00;1.80;;;19.50;54.30;;;;;;4945797;29;20031;-42
2021/12/03 01:09:39;;;;;;;2.55;2.30;;;19.40;54.30;;;;;;4945756;29;20485;-41
2021/12/03 01:12:06;;;;;;;2.60;2.00;;;19.40;54.30;;;;;;4945641;29;20031;-42
2021/12/03 01:14:32;;;;;;;2.20;2.00;;;19.40;54.30;;;;;;4945726;29;20470;-42
2021/12/03 01:16:58;;;;;;;2.38;2.15;;;19.40;54.30;;;;;;4945415;29;20031;-41
2021/12/03 01:19:24;;;;;;;2.55;2.28;;;19.40;54.30;;;;;;4945402;29;20042;-40
2021/12/03 01:21:50;;;;;;;2.10;1.90;;;19.40;54.30;;;;;;4945119;29;20051;-41
2021/12/03 01:24:16;;;;;;;3.30;2.20;;;19.30;54.20;;;;;;4945343;29;20032;-42
2021/12/03 01:26:44;;;;;;;2.10;1.90;;;19.30;54.30;;;;;;4945328;29;20042;-41
2021/12/03 01:29:10;;;;;;;2.22;1.80;;;19.30;54.30;;;;;;4945740;29;20028;-41
2021/12/03 01:31:37;;;;;;;2.10;1.90;;;19.30;54.30;;;;;;4945298;29;20035;-42
2021/12/03 01:34:03;;;;;;;3.45;2.33;;;19.30;54.30;;;;;;4944811;29;20724;-41
2021/12/03 01:36:29;;;;;;;2.63;1.92;;;19.30;54.30;;;;;;4945450;29;20537;-42
2021/12/03 01:38:55;;;;;;;3.10;2.33;;;19.20;54.30;;;;;;4945274;29;20027;-41
2021/12/03 01:41:22;;;;;;;2.33;2.08;;;19.20;54.30;;;;;;4945399;29;20031;-41
2021/12/03 01:43:50;;;;;;;3.35;2.28;;;19.20;54.30;;;;;;4944962;29;20031;-41
2021/12/03 01:46:19;;;;;;;3.60;2.22;;;19.20;54.30;;;;;;4944864;29;20035;-41
2021/12/03 01:48:45;;;;;;;2.10;1.90;;;19.20;54.30;;;;;;4945025;29;20059;-41
2021/12/03 01:51:11;;;;;;;2.60;2.03;;;19.20;54.30;;;;;;4945151;29;20055;-41
2021/12/03 01:53:38;;;;;;;2.47;2.28;;;19.10;54.30;;;;;;4944921;29;20178;-41
2021/12/03 01:56:09;;;;;;;2.70;2.45;;;19.10;54.40;;;;;;4944268;29;20039;-41
2021/12/03 01:58:35;;;;;;;2.72;2.30;;;19.10;54.40;;;;;;4944880;29;20765;-41
2021/12/03 02:01:05;;;;;;;2.83;2.15;;;19.10;55.00;;;;;;4944960;29;20043;-40
2021/12/03 02:03:32;;;;;;;2.35;2.15;;;19.10;54.30;;;;;;4944714;29;20042;-40
2021/12/03 02:05:59;;;;;;;2.85;2.50;;;19.00;54.30;;;;;;4944751;29;20047;-41
2021/12/03 02:08:25;;;;;;;2.47;2.25;;;19.00;54.30;;;;;;4944978;29;20032;-41
2021/12/03 02:10:51;;;;;;;3.10;2.40;;;19.00;54.30;;;;;;4945010;29;20031;-42
2021/12/03 02:13:17;;;;;;;2.75;2.55;;;19.00;54.40;;;;;;4944729;29;20035;-40
2021/12/03 02:15:44;;;;;;;2.70;2.25;;;19.00;54.40;;;;;;4945007;29;20036;-42
2021/12/03 02:18:11;;;;;;;3.42;2.30;;;19.00;54.40;;;;;;4944756;29;20023;-41
2021/12/03 02:20:49;;;;;;;2.63;2.42;;;19.00;54.40;;;;;;4945100;29;20043;-42
2021/12/03 02:23:15;;;;;;;2.55;2.15;;;18.90;54.40;;;;;;4944481;29;20044;-40
2021/12/03 02:25:42;;;;;;;2.45;2.25;;;18.90;54.40;;;;;;4944821;29;20100;-40
2021/12/03 02:28:08;;;;;;;2.63;2.42;;;18.90;54.40;;;;;;4944501;29;20095;-40
2021/12/03 02:30:35;;;;;;;2.95;2.50;;;18.90;54.40;;;;;;4944881;29;20098;-40
2021/12/03 02:33:01;;;;;;;2.67;2.47;;;18.90;54.50;;;;;;4944665;29;20099;-41
2021/12/03 02:35:27;;;;;;;3.15;2.50;;;18.80;54.50;;;;;;4944747;29;20036;-42
2021/12/03 02:37:54;;;;;;;2.85;2.45;;;18.80;54.50;;;;;;4944734;29;20032;-42
2021/12/03 02:40:20;;;;;;;2.65;2.45;;;18.80;54.50;;;;;;4944791;29;20082;-43
2021/12/03 02:42:46;;;;;;;2.97;2.50;;;18.80;54.50;;;;;;4944351;29;20108;-41
2021/12/03 02:45:12;;;;;;;3.47;2.80;;;18.80;54.50;;;;;;4944343;29;20039;-41
2021/12/03 02:47:39;;;;;;;2.95;2.63;;;18.80;54.50;;;;;;4944311;29;20031;-41
2021/12/03 02:50:07;;;;;;;2.50;2.30;;;18.70;54.50;;;;;;4944874;29;20040;-44
2021/12/03 02:52:33;;;;;;;2.65;2.40;;;18.70;54.50;;;;;;4944604;29;20297;-41
2021/12/03 02:54:59;;;;;;;2.60;2.40;;;18.70;54.60;;;;;;4944318;29;20110;-42
2021/12/03 02:57:25;;;;;;;2.70;2.50;;;18.70;54.60;;;;;;4943641;29;20031;-41
2021/12/03 02:59:51;;;;;;;2.90;2.50;;;18.70;54.60;;;;;;4947760;29;20027;-42
2021/12/03 03:02:18;;;;;;;2.92;2.70;;;18.60;54.50;;;;;;4947782;29;20032;-42
2021/12/03 03:04:44;;;;;;;2.70;2.25;;;18.70;54.60;;;;;;4947779;29;20046;-42
2021/12/03 03:07:10;;;;;;;3.25;2.95;;;18.60;54.60;;;;;;4947955;29;20730;-42
2021/12/03 03:09:36;;;;;;;3.25;2.70;;;18.60;54.60;;;;;;4948059;29;20031;-42
2021/12/03 03:12:02;;;;;;;3.28;2.63;;;18.60;54.60;;;;;;4947871;29;20103;-42
2021/12/03 03:14:28;;;;;;;3.88;2.95;;;18.60;54.60;;;;;;4947364;29;20199;-41
2021/12/03 03:16:55;;;;;;;3.97;2.70;;;18.60;54.70;;;;;;4947876;29;20027;-42
2021/12/03 03:19:22;;;;;;;3.25;2.92;;;18.60;54.70;;;;;;4947894;29;20028;-41
2021/12/03 03:21:48;;;;;;;3.03;2.72;;;18.50;54.70;;;;;;4947558;29;20119;-44
2021/12/03 03:24:15;;;;;;;3.03;2.67;;;18.50;55.20;;;;;;4947445;29;20070;-41
2021/12/03 03:26:43;;;;;;;3.75;3.03;;;18.50;54.70;;;;;;4947214;29;20036;-42
2021/12/03 03:29:10;;;;;;;3.30;3.00;;;18.50;54.70;;;;;;4947504;29;20028;-42
2021/12/03 03:31:37;;;;;;;3.40;3.03;;;18.50;54.70;;;;;;4947641;29;20031;-42
2021/12/03 03:34:03;;;;;;;3.67;3.17;;;18.40;54.70;;;;;;4947245;29;20607;-42
2021/12/03 03:36:32;;;;;;;3.17;2.60;;;18.40;54.70;;;;;;4947527;29;20035;-42
2021/12/03 03:38:58;;;;;;;3.83;2.97;;;18.40;54.80;;;;;;4947379;29;20032;-41
2021/12/03 03:41:25;;;;;;;3.60;3.30;;;18.50;54.90;;;;;;4947544;29;20028;-42
2021/12/03 03:43:51;;;;;;;3.70;3.30;;;18.50;55.10;;;;;;4947161;29;20051;-42
2021/12/03 03:46:17;;;;;;;3.33;3.00;;;18.60;55.00;;;;;;4947192;29;20110;-41
2021/12/03 03:48:43;;;;;;;3.67;3.28;;;18.50;55.20;;;;;;4947109;29;20058;-41
2021/12/03 03:51:09;;;;;;;4.25;3.50;;;18.50;55.20;;;;;;4947223;29;20046;-41
2021/12/03 03:53:38;;;;;;;3.85;3.22;;;18.50;55.20;;;;;;4947233;29;20028;-43
2021/12/03 03:56:05;;;;;;;3.28;2.97;;;18.40;55.10;;;;;;4944778;29;20493;-43
2021/12/03 03:58:31;;;;;;;4.57;3.70;;;18.40;55.10;;;;;;4928071;29;20119;-41
2021/12/03 04:00:58;;;;;;;3.40;3.10;;;18.40;55.10;;;;;;4931112;29;20035;-41
2021/12/03 04:03:24;;;;;;;3.95;3.50;;;18.40;55.10;;;;;;4947003;29;20060;-41
2021/12/03 04:05:50;;;;;;;4.40;3.40;;;18.40;55.40;;;;;;4946628;29;20043;-42
2021/12/03 04:08:16;;;;;;;4.05;3.17;;;18.50;55.50;;;;;;4946736;29;20034;-41
2021/12/03 04:10:42;;;;;;;3.72;3.30;;;18.50;55.40;;;;;;4946408;29;20042;-41
2021/12/03 04:13:08;;;;;;;3.38;3.08;;;18.50;55.50;;;;;;4946776;29;20027;-41
2021/12/03 04:15:35;;;;;;;3.50;3.17;;;18.50;55.50;;;;;;4946612;29;20024;-41
2021/12/03 04:18:01;;;;;;;4.00;3.63;;;18.50;55.50;;;;;;4946473;29;20038;-42
2021/12/03 04:20:27;;;;;;;3.92;3.53;;;18.40;55.50;;;;;;4946586;29;20096;-42
2021/12/03 04:22:53;;;;;;;3.40;3.10;;;18.40;55.50;;;;;;4946563;29;20070;-41
2021/12/03 04:25:20;;;;;;;3.55;3.25;;;18.30;55.40;;;;;;4946134;29;20042;-41
2021/12/03 04:27:47;;;;;;;3.88;3.50;;;18.30;55.40;;;;;;4945632;29;20895;-42
2021/12/03 04:30:16;;;;;;;3.50;3.20;;;18.40;55.50;;;;;;4946562;29;20095;-41
2021/12/03 04:32:43;;;;;;;3.20;2.90;;;18.50;55.80;;;;;;4946309;29;20067;-45
2021/12/03 04:35:09;;;;;;;3.40;3.10;;;18.50;55.60;;;;;;4946466;29;20521;-42
2021/12/03 04:37:35;;;;;;;3.78;3.38;;;18.50;55.60;;;;;;4945755;29;20047;-41
2021/12/03 04:40:02;;;;;;;3.30;3.00;;;18.50;55.60;;;;;;4946335;29;20091;-41
2021/12/03 04:42:28;;;;;;;3.55;3.25;;;18.40;55.60;;;;;;4946349;29;20031;-42
2021/12/03 04:44:54;;;;;;;4.15;2.95;;;18.40;55.60;;;;;;4946079;29;20059;-41
2021/12/03 04:47:21;;;;;;;3.55;3.25;;;18.30;55.50;;;;;;4944620;29;20031;-41
2021/12/03 04:49:47;;;;;;;3.55;3.05;;;18.30;55.50;;;;;;4945514;29;20075;-42
2021/12/03 04:52:13;;;;;;;3.28;2.97;;;18.30;55.50;;;;;;4946089;29;20042;-41
2021/12/03 04:54:39;;;;;;;3.40;3.10;;;18.40;55.80;;;;;;4946122;29;20437;-41
2021/12/03 04:57:05;;;;;;;3.67;3.10;;;18.50;55.90;;;;;;4935863;29;20060;-42
2021/12/03 04:59:31;;;;;;;3.47;3.17;;;18.50;55.80;;;;;;4926882;29;20040;-42
2021/12/03 05:01:58;;;;;;;3.58;3.28;;;18.50;55.70;;;;;;4936626;29;20027;-42
2021/12/03 05:04:24;;;;;;;3.42;3.13;;;18.50;55.80;;;;;;4945689;29;20035;-41
2021/12/03 05:07:03;;;;;;;4.65;3.17;;;18.40;55.70;;;;;;4945594;29;20035;-41
2021/12/03 05:09:30;;;;;;;3.47;3.15;;;18.40;55.70;;;;;;4945679;29;20095;-41
2021/12/03 05:11:56;;;;;;;3.20;2.90;;;18.30;55.60;;;;;;4945383;29;20059;-41
2021/12/03 05:14:22;;;;;;;3.38;3.08;;;18.40;55.80;;;;;;4945797;29;20422;-41
2021/12/03 05:16:48;;;;;;;3.10;2.80;;;18.50;56.00;;;;;;4945224;29;20023;-41
2021/12/03 05:19:16;;;;;;;3.67;3.07;;;18.50;55.90;;;;;;4945517;29;20040;-41
2021/12/03 05:21:42;;;;;;;;;;;18.50;55.80;;;;;;4945360;29;20040;-42
2021/12/03 05:24:08;;;;;;;4.60;3.15;;;18.50;55.80;;;;;;4944129;29;19922;-41
2021/12/03 05:26:35;;;;;;;3.08;2.67;;;18.40;55.80;;;;;;4944584;29;20024;-41
2021/12/03 05:29:02;;;;;;;3.53;2.75;;;18.40;55.80;;;;;;4945311;29;20063;-43
2021/12/03 05:31:28;;;;;;;3.33;3.03;;;18.30;55.70;;;;;;4945450;29;20568;-41
2021/12/03 05:33:55;;;;;;;3.40;3.10;;;18.40;55.90;;;;;;4945297;29;20031;-43
2021/12/03 05:36:21;;;;;;;3.73;2.63;;;18.50;56.00;;;;;;4944971;29;20032;-42
2021/12/03 05:38:47;;;;;;;3.35;2.85;;;18.50;56.00;;;;;;4945477;29;20126;-43
2021/12/03 05:41:13;;;;;;;3.20;2.90;;;18.50;55.90;;;;;;4945351;29;20079;-41
2021/12/03 05:43:40;;;;;;;3.25;2.85;;;18.50;55.90;;;;;;4945238;29;20031;-43
2021/12/03 05:46:06;;;;;;;3.17;2.58;;;18.50;55.90;;;;;;4945109;29;20047;-42
2021/12/03 05:48:32;;;;;;;2.70;2.38;;;18.40;55.80;;;;;;4944802;29;20042;-41
2021/12/03 05:50:58;;;;;;;2.83;2.50;;;18.40;55.80;;;;;;4945220;29;20066;-42
2021/12/03 05:53:25;;;;;;;3.25;2.90;;;18.30;55.80;;;;;;4945373;29;20024;-42
2021/12/03 05:55:51;;;;;;;3.22;2.85;;;18.40;55.90;;;;;;4943943;29;20058;-42
2021/12/03 05:58:18;;;;;;;2.65;2.42;;;18.50;56.10;;;;;;4944981;29;20040;-42
2021/12/03 06:00:44;;;;;;;2.60;2.40;;;18.50;55.90;;;;;;4944830;29;20544;-43
2021/12/03 06:03:11;;;;;;;2.83;2.53;;;18.50;55.90;;;;;;4944782;29;20027;-42
2021/12/03 06:05:39;;;;;;;2.93;2.53;;;18.50;55.90;;;;;;4944924;29;20032;-41
2021/12/03 06:08:06;;;;;;;2.70;2.42;;;18.40;55.90;;;;;;4944786;29;20035;-41
2021/12/03 06:10:32;;;;;;;2.87;2.63;;;18.40;55.90;;;;;;4945027;29;20572;-42
2021/12/03 06:12:58;;;;;;;2.78;2.53;;;18.30;55.80;;;;;;4945111;29;20027;-41
2021/12/03 06:15:25;;;;;;;2.88;2.58;;;18.40;56.00;;;;;;4944940;29;20389;-41
2021/12/03 06:17:51;;;;;;;3.05;2.75;;;18.50;56.10;;;;;;4944579;29;20024;-41
2021/12/03 06:20:18;;;;;;;2.83;2.47;;;18.50;56.10;;;;;;4945253;29;20020;-42
2021/12/03 06:22:44;;;;;;;3.17;2.57;;;18.50;56.00;;;;;;4944903;29;20062;-42
2021/12/03 06:25:11;;;;;;;3.00;2.45;;;18.50;55.90;;;;;;4944711;29;20306;-41
2021/12/03 06:27:38;;;;;;;2.70;2.50;;;18.50;56.00;;;;;;4943900;29;20028;-41
2021/12/03 06:30:08;;;;;;;2.67;2.45;;;18.40;55.90;;;;;;4944777;29;20047;-42
2021/12/03 06:32:35;;;;;;;2.72;2.40;;;18.40;56.00;;;;;;4944741;29;20489;-41
2021/12/03 06:35:01;;;;;;;2.40;2.20;;;18.30;56.00;;;;;;4948392;29;20042;-41
2021/12/03 06:37:27;;;;;;;2.60;2.40;;;18.40;55.90;;;;;;4948547;29;20068;-41
2021/12/03 06:39:53;;;;;;;2.70;2.50;;;18.50;56.20;;;;;;4947873;29;20078;-41
2021/12/03 06:42:19;;;;;;;3.00;2.33;;;18.50;56.20;;;;;;4948610;29;20063;-41
2021/12/03 06:44:45;;;;;;;2.83;2.53;;;18.50;56.10;;;;;;4948531;29;20035;-43
2021/12/03 06:47:12;;;;;;;2.88;2.40;;;18.50;56.00;;;;;;4948241;29;20038;-41
2021/12/03 06:49:38;;;;;;;2.58;2.38;;;18.50;56.00;;;;;;4947911;29;20799;-41
2021/12/03 06:52:07;;;;;;;2.60;2.38;;;18.40;56.50;;;;;;4948240;29;20038;-43
2021/12/03 06:54:35;;;;;;;2.65;2.33;;;18.40;56.00;;;;;;4948338;29;20039;-41
2021/12/03 06:57:02;;;;;;;2.60;2.30;;;18.40;56.00;;;;;;4947530;29;20557;-41
2021/12/03 06:59:29;;;;;;;2.55;2.35;;;18.50;56.20;;;;;;4947520;29;20228;-41
2021/12/03 07:01:55;;;;;;;2.58;2.38;;;18.50;56.20;;;;;;4951526;29;20042;-42
2021/12/03 07:04:21;;;;;;;2.60;2.28;;;18.50;56.10;;;;;;4948034;29;20027;-41
2021/12/03 07:06:48;;;;;;;2.40;2.20;;;18.50;56.10;;;;;;4948023;29;20082;-41
2021/12/03 07:09:14;;;;;;;2.25;2.00;;;18.50;56.00;;;;;;4947781;29;20034;-41
2021/12/03 07:11:41;;;;;;;3.05;2.40;;;18.50;56.10;;;;;;4947921;29;20024;-41
2021/12/03 07:14:07;;;;;;;2.55;2.28;;;18.40;56.10;;;;;;4947987;29;20087;-43
2021/12/03 07:16:33;;;;;;;2.58;2.33;;;18.40;56.10;;;;;;4947705;29;20031;-41
2021/12/03 07:18:59;;;;;;;2.38;2.17;;;18.40;56.10;;;;;;4947308;29;20031;-41
2021/12/03 07:21:26;;;;;;;3.03;2.30;;;18.50;56.20;;;;;;4947487;29;20040;-41
2021/12/03 07:23:53;;;;;;;2.63;2.43;;;18.50;56.20;;;;;;4948048;29;20059;-41
2021/12/03 07:26:20;;;;;;;3.88;2.17;;;18.50;56.20;;;;;;4946898;29;20050;-43
2021/12/03 07:28:46;;;;;;;2.97;2.30;;;18.50;56.10;;;;;;4947410;29;20034;-41
2021/12/03 07:31:12;;;;;;;2.78;2.30;;;18.50;56.10;;;;;;4947508;29;20111;-41
2021/12/03 07:33:39;;;;;;;2.50;2.20;;;18.40;56.10;;;;;;4947581;29;20031;-41
2021/12/03 07:36:06;;;;;;;;;;;18.40;56.10;;;;;;4948201;29;20027;-41
2021/12/03 07:38:32;;;;;;;3.17;2.40;;;18.40;56.10;;;;;;4947615;29;19910;-41
2021/12/03 07:40:58;;;;;;;2.50;2.30;;;18.50;56.30;;;;;;4947241;29;20024;-42
2021/12/03 07:43:25;;;;;;;2.30;2.00;;;18.50;56.10;;;;;;4946011;29;20030;-42
2021/12/03 07:45:51;;;;;;;3.17;2.60;;;18.50;56.10;;;;;;4946979;29;20066;-41
2021/12/03 07:48:21;;;;;;;2.55;2.28;;;18.50;56.10;;;;;;4947344;29;20055;-42
2021/12/03 07:50:47;;;;;;;2.53;2.30;;;18.40;56.00;;;;;;4947170;29;20032;-42
2021/12/03 07:53:17;;;;;;;2.90;2.40;;;18.40;56.10;;;;;;4947465;29;20031;-41
2021/12/03 07:55:43;;;;;;;2.58;2.20;;;18.30;56.60;;;;;;4947049;29;20035;-43
2021/12/03 07:58:09;;;;;;;3.10;2.40;;;18.40;56.20;;;;;;4946359;29;20130;-43
2021/12/03 08:00:36;;;;;;;2.13;1.92;;;18.50;56.30;;;;;;4946545;29;20032;-42
2021/12/03 08:03:02;;;;;;;3.20;2.47;;;18.50;56.20;;;;;;4946966;29;20062;-43
2021/12/03 08:05:28;;;;;;;2.30;2.10;;;18.50;56.20;;;;;;4947031;29;20316;-42
2021/12/03 08:07:55;;;;;;;3.22;2.40;;;18.50;56.10;;;;;;4947041;29;20024;-41
2021/12/03 08:10:21;;;;;;;2.28;2.05;;;18.50;56.10;;;;;;4946606;29;20036;-41
2021/12/03 08:12:47;;;;;;;3.08;2.17;;;18.40;56.10;;;;;;4946987;29;20031;-41
2021/12/03 08:15:14;;;;;;;2.38;2.17;;;18.30;56.10;;;;;;4946778;29;20035;-41
2021/12/03 08:17:40;;;;;;;2.42;2.10;;;18.40;56.10;;;;;;4946809;29;20028;-41
2021/12/03 08:20:07;;;;;;;2.83;2.00;;;18.40;56.20;;;;;;4946594;29;20040;-42
2021/12/03 08:22:33;;;;;;;2.58;2.38;;;18.50;56.30;;;;;;4946580;29;20078;-41
2021/12/03 08:25:00;;;;;;;2.47;2.10;;;18.50;56.20;;;;;;4946492;29;20048;-41
2021/12/03 08:27:26;;;;;;;2.50;2.30;;;18.50;56.10;;;;;;4945893;29;20039;-41
2021/12/03 08:29:52;;;;;;;2.78;2.08;;;18.50;56.10;;;;;;4946162;29;20043;-42
2021/12/03 08:32:19;;;;;;;2.70;2.20;;;18.40;56.20;;;;;;4946416;29;20028;-43
2021/12/03 08:34:45;;;;;;;2.28;1.92;;;18.30;56.20;;;;;;4946483;29;20032;-41
2021/12/03 08:37:11;;;;;;;2.47;2.03;;;18.30;56.20;;;;;;4946435;29;20039;-42
2021/12/03 08:39:37;;;;;;;2.13;1.92;;;18.40;56.20;;;;;;4946583;29;20019;-42
2021/12/03 08:42:04;;;;;;;2.40;2.20;;;18.50;56.30;;;;;;4946066;29;20046;-41
2021/12/03 08:44:30;;;;;;;;;;;18.50;56.20;;;;;;4946758;29;20036;-42
2021/12/03 08:47:03;;;;;;;2.35;1.92;;;18.50;56.20;;;;;;4946303;29;20084;-42
2021/12/03 08:49:31;;;;;;;2.28;2.03;;;18.50;56.10;;;;;;4945735;29;20043;-43
2021/12/03 08:57:12;;;;;;;2.47;2.08;;;18.30;56.10;;;;;;4944418;29;20070;-42
2021/12/03 08:59:38;;;;;;;2.45;2.22;;;18.30;56.20;;;;;;4946067;29;20034;-41
2021/12/03 09:02:04;;;;;;;2.58;2.10;;;18.40;56.30;;;;;;4945588;29;20091;-41
2021/12/03 09:04:30;;;;;;;2.42;2.00;;;18.50;56.20;;;;;;4945709;29;20119;-41
2021/12/03 09:06:57;;;;;;;2.40;2.10;;;18.50;56.20;;;;;;4945789;29;20167;-41
2021/12/03 09:09:27;;;;;;;2.55;2.33;;;18.50;56.20;;;;;;4945820;29;20088;-41
2021/12/03 09:11:53;;;;;;;2.65;2.25;;;18.50;56.20;;;;;;4945352;29;20039;-42
2021/12/03 09:14:28;;;;;;;3.08;2.50;;;18.40;56.20;;;;;;4945666;29;20028;-41
2021/12/03 09:17:01;;;;;;;2.00;1.77;;;18.30;56.20;;;;;;4945595;29;20042;-41
2021/12/03 09:19:44;;;;;;;2.30;2.10;;;18.30;56.20;;;;;;4945536;29;20042;-43
2021/12/03 09:22:15;;;;;;;2.80;2.15;;;18.30;56.20;;;;;;4945356;29;20047;-41
2021/12/03 09:24:41;;;;;;;2.88;2.17;;;18.40;56.40;;;;;;4945646;29;20639;-41
2021/12/03 09:27:07;;;;;;;2.53;2.10;;;18.50;56.40;;;;;;4945008;29;20032;-42
2021/12/03 09:29:35;;;;;;;3.00;2.20;;;18.50;56.20;;;;;;4945123;29;20028;-41
2021/12/03 09:32:02;;;;;;;2.42;2.10;;;18.50;56.20;;;;;;4945177;29;20032;-41
2021/12/03 09:34:30;;;;;;;3.10;2.35;;;18.50;56.20;;;;;;4945366;29;20118;-41
2021/12/03 09:36:57;;;;;;;2.47;2.28;;;18.40;56.20;;;;;;4945513;29;20095;-41
2021/12/03 09:39:24;;;;;;;2.50;2.00;;;18.30;56.20;;;;;;4945462;29;20047;-41
2021/12/03 09:41:54;;;;;;;2.40;2.20;;;18.30;56.30;;;;;;4945115;29;20027;-41
2021/12/03 09:44:20;;;;;;;2.10;1.90;;;18.30;56.30;;;;;;4945218;29;20044;-41
2021/12/03 09:46:47;;;;;;;2.42;2.17;;;18.30;56.20;;;;;;4945235;29;20042;-42
2021/12/03 09:55:29;;;;;;;2.50;1.98;;;18.50;56.30;;;;;;4945372;29;20062;-42
2021/12/03 09:57:32;;;;;;;2.30;2.10;;;18.50;56.30;;;;;;4931362;29;20044;-41
2021/12/03 10:02:57;;;;;;;1.92;1.73;;;18.30;56.30;;;;;;4927927;29;20036;-41
2021/12/03 10:13:46;;;;;;;2.25;2.00;;;18.50;56.40;;;;;;4885392;29;20065;-41
2021/12/03 10:18:50;;;;;;;2.53;1.98;;;18.40;56.30;;;;;;4881708;29;20037;-41
2021/12/03 10:32:48;;;;;;;3.17;2.05;;;18.50;56.40;;;;;;4866919;29;20066;-40
2021/12/03 10:38:18;;;;;;;2.35;2.13;;;18.50;56.30;;;;;;4867015;29;20823;-41
2021/12/03 10:46:23;;;;;;;2.38;2.10;;;18.30;56.30;;;;;;4841116;29;20085;-42
2021/12/03 10:51:49;;;;;;;2.10;1.90;;;18.40;56.40;;;;;;4929615;29;20401;-41
2021/12/03 10:57:35;;;;;;;2.22;2.03;;;18.50;56.30;;;;;;4944003;29;20537;-41
2021/12/03 11:11:36;;;;;;;2.83;2.13;;;18.40;56.40;;;;;;4944589;29;20036;-41
2021/12/03 11:44:09;;;;;;;;;;;18.40;56.20;;;;;;4869942;29;20136;-41
2021/12/03 11:47:12;;;;;;;2.35;2.15;;;18.30;56.30;;;;;;4868902;29;20462;-41
2021/12/03 12:08:21;;;;;;;2.28;2.08;;;18.30;56.30;;;;;;4808800;29;20036;-41
2021/12/03 12:24:31;;;;;;;2.22;2.03;;;18.30;56.30;;;;;;4850408;29;20061;-41
2021/12/03 12:57:54;;;;;;;2.95;2.00;;;18.50;56.30;;;;;;4942226;29;20031;-41
2021/12/03 13:27:10;;;;;;;2.10;1.90;;;18.20;56.30;;;;;;4943488;29;20060;-43
